Peotone Weather
Peotone-Weather Station Historical Data
 
Daily Summary for May 18, 2022 Units:  English    Metric   Both
Daily Weekly Monthly Yearly Custom
  Current: High: Low: Average:
Temperature: 62.9 °F 62.9 °F 51.8 °F 56.7 °F
Dew Point: 62.4 °F 62.4 °F 41.3 °F 49.9 °F
Humidity: 98% 98% 54.1% 80%
Wind Speed: 0.9mph 5.7mph 0.1mph 2.1mph
Wind Gust: 5.8mph 13.8mph - -
WindSouth - - ESE
Pressure: 29.76 in 29.99 in 29.76 in -
Precipitation: 0.81 in      
Historical Graphs
 
 
Tabular Data for May 18, 2022
Time Temperature Dew Point Pressure Wind Wind Speed Wind Gust Humidity Rainfall Rate (Hourly) solar
00:04 57.4 °F 42.9 °F 29.99 in ESE 1.3 mph 5.8 mph 58.2% 0.00 in 0 W/m2
00:09 57.4 °F 43 °F 29.99 in ESE 0.9 mph 5.8 mph 58.6% 0.00 in 0 W/m2
00:14 57.4 °F 43 °F 29.98 in East 1.4 mph 5.8 mph 58.5% 0.00 in 0 W/m2
00:19 57.4 °F 42.5 °F 29.98 in East 2.1 mph 9.2 mph 57.3% 0.00 in 0 W/m2
00:24 57.5 °F 42 °F 29.97 in ESE 3.1 mph 9.2 mph 56% 0.00 in 0 W/m2
00:29 57.7 °F 41.8 °F 29.97 in ESE 2.4 mph 9.2 mph 55.2% 0.00 in 0 W/m2
00:34 57.8 °F 41.3 °F 29.97 in ESE 3.1 mph 9.2 mph 54.1% 0.00 in 0 W/m2
00:39 57.8 °F 41.7 °F 29.97 in ESE 3 mph 9.2 mph 54.8% 0.00 in 0 W/m2
00:44 57.8 °F 41.7 °F 29.97 in East 2.6 mph 10.3 mph 54.8% 0.00 in 0 W/m2
00:49 57.8 °F 41.8 °F 29.97 in East 2.2 mph 10.3 mph 55% 0.00 in 0 W/m2
00:54 57.8 °F 41.9 °F 29.97 in East 2.2 mph 9.2 mph 55.2% 0.00 in 0 W/m2
00:59 57.8 °F 42.2 °F 29.96 in East 2.8 mph 8.1 mph 55.9% 0.00 in 0 W/m2
01:04 57.8 °F 42.2 °F 29.96 in East 2.2 mph 8.1 mph 56% 0.00 in 0 W/m2
01:09 57.7 °F 42.3 °F 29.96 in East 2.8 mph 8.1 mph 56.3% 0.00 in 0 W/m2
01:14 57.7 °F 42.2 °F 29.96 in East 1.8 mph 8.1 mph 56.1% 0.00 in 0 W/m2
01:19 57.7 °F 42.1 °F 29.96 in East 2.2 mph 8.1 mph 56% 0.00 in 0 W/m2
01:24 57.6 °F 42.2 °F 29.97 in East 2 mph 8.1 mph 56.4% 0.00 in 0 W/m2
01:29 57.6 °F 42.5 °F 29.97 in East 1.7 mph 10.3 mph 57% 0.00 in 0 W/m2
01:34 57.5 °F 42.3 °F 29.96 in East 1.4 mph 10.3 mph 56.8% 0.00 in 0 W/m2
01:39 57.6 °F 42.1 °F 29.97 in East 1.6 mph 8.1 mph 56.2% 0.00 in 0 W/m2
01:44 57.6 °F 42.1 °F 29.97 in East 2.2 mph 8.1 mph 56.1% 0.00 in 0 W/m2
01:49 57.7 °F 42 °F 29.97 in ESE 1.2 mph 8.1 mph 55.8% 0.00 in 0 W/m2
01:54 57.7 °F 42 °F 29.96 in East 1.3 mph 5.8 mph 55.8% 0.00 in 0 W/m2
01:59 57.7 °F 42 °F 29.96 in East 1.1 mph 5.8 mph 55.8% 0.00 in 0 W/m2
02:04 57.7 °F 41.7 °F 29.96 in ESE 1.5 mph 6.9 mph 55% 0.00 in 0 W/m2
02:09 57.7 °F 41.7 °F 29.95 in ESE 1.7 mph 8.1 mph 55% 0.00 in 0 W/m2
02:14 57.7 °F 41.8 °F 29.94 in ESE 2 mph 8.1 mph 55.3% 0.00 in 0 W/m2
02:19 57.5 °F 42.7 °F 29.93 in ESE 2.2 mph 9.2 mph 57.5% 0.00 in 0 W/m2
02:24 57.1 °F 43.1 °F 29.93 in ESE 1.7 mph 9.2 mph 59.2% 0.00 in 0 W/m2
02:29 56.8 °F 43.3 °F 29.94 in SE 0.6 mph 9.2 mph 60.4% 0.00 in 0 W/m2
02:34 56.6 °F 43.3 °F 29.95 in SE 0.7 mph 5.8 mph 61% 0.00 in 0 W/m2
02:39 56.6 °F 43.4 °F 29.96 in ESE 1.6 mph 5.8 mph 61.1% 0.00 in 0 W/m2
02:44 56.6 °F 43.2 °F 29.96 in ESE 1 mph 5.8 mph 60.6% 0.00 in 0 W/m2
02:49 56.7 °F 42.7 °F 29.95 in ESE 0.8 mph 4.6 mph 59.2% 0.00 in 0 W/m2
02:54 56.9 °F 42.1 °F 29.95 in East 1.1 mph 11.5 mph 57.5% 0.00 in 0 W/m2
02:59 57.1 °F 41.7 °F 29.94 in ESE 1.4 mph 11.5 mph 56.4% 0.00 in 0 W/m2
03:04 57.1 °F 41.9 °F 29.93 in SE 2.8 mph 6.9 mph 56.7% 0.00 in 0 W/m2
03:09 57 °F 42.2 °F 29.93 in SE 0.7 mph 6.9 mph 57.5% 0.00 in 0 W/m2
03:14 57 °F 42 °F 29.93 in ESE 1.4 mph 5.8 mph 57.3% 0.00 in 0 W/m2
03:19 56.9 °F 42.4 °F 29.93 in ESE 1.6 mph 5.8 mph 58.3% 0.00 in 0 W/m2
03:24 56.8 °F 42.3 °F 29.93 in ESE 0.9 mph 5.8 mph 58.4% 0.00 in 0 W/m2
03:29 56.7 °F 42.4 °F 29.93 in ESE 1.1 mph 4.6 mph 58.8% 0.00 in 0 W/m2
03:34 56.5 °F 42.6 °F 29.93 in ESE 1.3 mph 5.8 mph 59.5% 0.00 in 0 W/m2
03:39 56.4 °F 42.4 °F 29.93 in ESE 1 mph 5.8 mph 59.4% 0.00 in 0 W/m2
03:44 56.3 °F 42.5 °F 29.93 in ESE 0.6 mph 4.6 mph 59.8% 0.00 in 0 W/m2
03:49 56.3 °F 42.2 °F 29.93 in ESE 1.1 mph 5.8 mph 59% 0.00 in 0 W/m2
03:54 56.3 °F 42.2 °F 29.94 in East 1.4 mph 5.8 mph 59% 0.00 in 0 W/m2
03:59 56.4 °F 42.3 °F 29.94 in East 1.7 mph 5.8 mph 59% 0.00 in 0 W/m2
04:04 56.4 °F 42.6 °F 29.94 in East 1.3 mph 5.8 mph 59.8% 0.00 in 0 W/m2
04:09 56.3 °F 42.5 °F 29.93 in East 1.8 mph 8.1 mph 59.7% 0.00 in 0 W/m2
04:14 56.3 °F 42.2 °F 29.93 in East 2.3 mph 8.1 mph 59.1% 0.00 in 0 W/m2
04:19 56.4 °F 42.2 °F 29.93 in East 3.1 mph 8.1 mph 58.8% 0.00 in 0 W/m2
04:24 56.5 °F 42.1 °F 29.93 in East 1.8 mph 8.1 mph 58.5% 0.00 in 0 W/m2
04:29 56.5 °F 42 °F 29.93 in East 1.3 mph 8.1 mph 58.1% 0.00 in 0 W/m2
04:34 56.6 °F 41.7 °F 29.93 in ESE 2.3 mph 5.8 mph 57.3% 0.00 in 0 W/m2
04:39 56.7 °F 41.6 °F 29.93 in ESE 2.7 mph 5.8 mph 57% 0.00 in 0 W/m2
04:44 56.8 °F 41.7 °F 29.93 in ESE 1.7 mph 6.9 mph 56.9% 0.00 in 0 W/m2
04:49 56.8 °F 41.6 °F 29.93 in SE 1.5 mph 8.1 mph 56.6% 0.00 in 0 W/m2
04:54 56.8 °F 42.6 °F 29.93 in ESE 1.3 mph 8.1 mph 58.9% 0.00 in 0 W/m2
04:59 56.4 °F 43.5 °F 29.93 in ESE 2 mph 9.2 mph 61.8% 0.00 in 0 W/m2
05:04 55.8 °F 44.2 °F 29.93 in ESE 1.9 mph 9.2 mph 64.9% 0.00 in 0 W/m2
05:09 55.2 °F 44.4 °F 29.92 in ESE 1.5 mph 8.1 mph 66.8% 0.00 in 0 W/m2
05:14 55 °F 44.6 °F 29.92 in ESE 1.4 mph 5.8 mph 67.8% 0.00 in 0 W/m2
05:19 54.9 °F 44.7 °F 29.92 in ESE 0.8 mph 5.8 mph 68.2% 0.00 in 0 W/m2
05:24 54.9 °F 44.6 °F 29.92 in ESE 1.7 mph 5.8 mph 68.2% 0.00 in 0 W/m2
05:29 54.9 °F 44.9 °F 29.92 in ESE 1.9 mph 6.9 mph 69% 0.00 in 0 W/m2
05:34 54.9 °F 45.1 °F 29.92 in ESE 1.8 mph 6.9 mph 69.5% 0.00 in 0 W/m2
05:39 54.8 °F 45.4 °F 29.92 in SE 2.1 mph 8.1 mph 70.5% 0.00 in 0 W/m2
05:44 54.6 °F 46.2 °F 29.92 in SE 2.5 mph 8.1 mph 73.3% 0.00 in 0 W/m2
05:49 54.1 °F 46.8 °F 29.92 in ESE 1.6 mph 8.1 mph 76.3% 0.01 in 0 W/m2
05:54 53.7 °F 47.5 °F 29.92 in SE 1.1 mph 5.8 mph 79.4% 0.03 in 0 W/m2
05:59 53.1 °F 47.9 °F 29.91 in ESE 1.5 mph 5.8 mph 82.4% 0.05 in 0 W/m2
06:04 52.6 °F 48.1 °F 29.91 in East 4.7 mph 12.6 mph 84.5% 0.10 in 0 W/m2
06:09 52.1 °F 48.2 °F 29.89 in ESE 4.1 mph 12.6 mph 86.5% 0.10 in 5 W/m2
06:14 51.9 °F 48.3 °F 29.89 in East 3.9 mph 12.6 mph 87.8% 0.11 in 11 W/m2
06:19 51.8 °F 48.6 °F 29.90 in East 1.3 mph 12.6 mph 88.9% 0.11 in 11 W/m2
06:24 51.8 °F 48.8 °F 29.90 in East 2.1 mph 9.2 mph 89.6% 0.11 in 16 W/m2
06:29 51.8 °F 49 °F 29.90 in East 3.3 mph 9.2 mph 90% 0.11 in 19 W/m2
06:34 51.9 °F 49.3 °F 29.89 in ESE 2.3 mph 10.3 mph 90.7% 0.11 in 19 W/m2
06:39 52 °F 49.5 °F 29.89 in ESE 2.7 mph 10.3 mph 91% 0.11 in 16 W/m2
06:44 52.1 °F 49.5 °F 29.88 in ESE 2.6 mph 9.2 mph 91% 0.11 in 25 W/m2
06:49 52.2 °F 49.6 °F 29.87 in ESE 3.9 mph 10.3 mph 91% 0.11 in 49 W/m2
06:54 52.3 °F 49.8 °F 29.87 in ESE 4.1 mph 11.5 mph 91% 0.11 in 69 W/m2
06:59 52.6 °F 50 °F 29.87 in ESE 3.6 mph 11.5 mph 91% 0.10 in 79 W/m2
07:04 52.9 °F 50.1 °F 29.87 in ESE 3.6 mph 13.8 mph 90.4% 0.08 in 84 W/m2
07:09 53.2 °F 50.3 °F 29.87 in East 5.7 mph 13.8 mph 90% 0.06 in 114 W/m2
07:14 53.5 °F 50.6 °F 29.87 in East 5.1 mph 13.8 mph 90% 0.01 in 153 W/m2
07:19 53.7 °F 50.8 °F 29.86 in East 4 mph 11.5 mph 90% 0.01 in 185 W/m2
07:24 54.1 °F 51 °F 29.86 in East 4.5 mph 12.6 mph 89.4% 0.00 in 185 W/m2
07:29 54.3 °F 51.1 °F 29.86 in East 3.6 mph 12.6 mph 88.8% 0.00 in 146 W/m2
07:34 54.7 °F 51.3 °F 29.86 in ESE 2.4 mph 9.2 mph 88.4% 0.00 in 146 W/m2
07:39 55 °F 51.5 °F 29.86 in East 5.7 mph 12.6 mph 88% 0.00 in 148 W/m2
07:44 55.2 °F 51.7 °F 29.85 in East 5.1 mph 12.6 mph 88% 0.00 in 163 W/m2
07:49 55.6 °F 52.1 °F 29.84 in ESE 5.7 mph 13.8 mph 88% 0.00 in 171 W/m2
07:54 55.8 °F 52.3 °F 29.84 in ESE 3.7 mph 13.8 mph 88% 0.00 in 160 W/m2
07:59 55.7 °F 52 °F 29.85 in ESE 3.9 mph 11.5 mph 87.1% 0.00 in 63 W/m2
08:04 55.6 °F 51.8 °F 29.85 in ESE 4.5 mph 11.5 mph 87.1% 0.00 in 40 W/m2
08:09 55.5 °F 51.8 °F 29.85 in East 4 mph 11.5 mph 87.4% 0.00 in 33 W/m2
08:14 55.4 °F 51.9 °F 29.86 in ESE 3.4 mph 9.2 mph 88% 0.00 in 16 W/m2
08:19 55.3 °F 51.8 °F 29.86 in ESE 3.2 mph 9.2 mph 88% 0.00 in 18 W/m2
08:24 55.4 °F 51.9 °F 29.86 in ESE 2.6 mph 9.2 mph 88% 0.00 in 32 W/m2
08:29 55.5 °F 52.3 °F 29.86 in ESE 1.7 mph 6.9 mph 89% 0.00 in 28 W/m2
08:34 55.5 °F 52.3 °F 29.87 in East 1.9 mph 6.9 mph 89% 0.00 in 16 W/m2
08:39 55.5 °F 52.4 °F 29.87 in East 2.6 mph 6.9 mph 89% 0.00 in 14 W/m2
08:44 55.5 °F 52.3 °F 29.88 in East 1 mph 5.8 mph 89% 0.00 in 25 W/m2
08:49 55.5 °F 52.6 °F 29.89 in East 0.8 mph 5.8 mph 89.9% 0.01 in 26 W/m2
08:54 55.5 °F 52.7 °F 29.89 in East 1 mph 4.6 mph 90.1% 0.02 in 23 W/m2
08:59 55.4 °F 52.8 °F 29.89 in ESE 1.5 mph 4.6 mph 91% 0.02 in 26 W/m2
09:04 55.3 °F 52.7 °F 29.88 in ESE 1.3 mph 4.6 mph 91% 0.03 in 28 W/m2
09:09 55.1 °F 52.7 °F 29.88 in ESE 1 mph 4.6 mph 91.6% 0.03 in 30 W/m2
09:14 55.1 °F 52.8 °F 29.88 in SE 2.3 mph 5.8 mph 92% 0.04 in 30 W/m2
09:19 55.2 °F 53.1 °F 29.88 in SSE 2.8 mph 6.9 mph 92.7% 0.05 in 40 W/m2
09:24 55.2 °F 53.2 °F 29.88 in SE 4.1 mph 9.2 mph 93% 0.05 in 54 W/m2
09:29 55.2 °F 53.2 °F 29.86 in SE 3.3 mph 9.2 mph 93% 0.05 in 54 W/m2
09:34 55.3 °F 53.3 °F 29.86 in SE 2.9 mph 9.2 mph 93% 0.05 in 32 W/m2
09:39 55.3 °F 53.4 °F 29.86 in SE 3.1 mph 9.2 mph 93.2% 0.06 in 21 W/m2
09:44 55.3 °F 53.4 °F 29.86 in SE 1.9 mph 6.9 mph 93.2% 0.07 in 16 W/m2
09:49 55.4 °F 53.7 °F 29.86 in ESE 2.2 mph 6.9 mph 93.9% 0.07 in 28 W/m2
09:54 55.5 °F 53.8 °F 29.85 in SE 1.2 mph 6.9 mph 94% 0.07 in 42 W/m2
09:59 55.6 °F 53.9 °F 29.85 in ESE 1.4 mph 6.9 mph 94% 0.06 in 47 W/m2
10:04 55.8 °F 54.1 °F 29.85 in SE 2.2 mph 6.9 mph 94% 0.06 in 56 W/m2
10:09 56 °F 54.4 °F 29.84 in SE 1 mph 6.9 mph 94.3% 0.06 in 56 W/m2
10:14 56 °F 54.3 °F 29.84 in SE 1.2 mph 6.9 mph 94% 0.07 in 47 W/m2
10:19 56.1 °F 54.6 °F 29.84 in SE 2 mph 6.9 mph 94.8% 0.08 in 44 W/m2
10:24 56.2 °F 54.8 °F 29.84 in SE 2.4 mph 6.9 mph 95% 0.09 in 44 W/m2
10:29 56.4 °F 55 °F 29.84 in SE 3.5 mph 10.3 mph 95% 0.10 in 70 W/m2
10:34 56.6 °F 55.2 °F 29.83 in SE 2.6 mph 10.3 mph 95% 0.12 in 90 W/m2
10:39 56.8 °F 55.3 °F 29.83 in SE 2 mph 8.1 mph 95% 0.13 in 93 W/m2
10:44 56.9 °F 55.5 °F 29.83 in SSE 2.4 mph 9.2 mph 95% 0.14 in 86 W/m2
10:49 57.1 °F 55.7 °F 29.83 in SSE 2.1 mph 9.2 mph 95% 0.14 in 105 W/m2
10:54 57.3 °F 56.1 °F 29.83 in SE 0.7 mph 6.9 mph 95.7% 0.13 in 97 W/m2
10:59 57.5 °F 56.3 °F 29.83 in SE 1.7 mph 6.9 mph 95.7% 0.13 in 79 W/m2
11:04 57.5 °F 56.4 °F 29.83 in SE 2.6 mph 6.9 mph 96% 0.13 in 65 W/m2
11:09 57.6 °F 56.2 °F 29.83 in SE 1 mph 6.9 mph 95.3% 0.13 in 58 W/m2
11:14 57.5 °F 56.3 °F 29.83 in ESE 1.4 mph 5.8 mph 95.8% 0.12 in 58 W/m2
11:19 57.5 °F 56.4 °F 29.82 in SE 1.2 mph 6.9 mph 96% 0.11 in 63 W/m2
11:24 57.6 °F 56.5 °F 29.82 in ESE 1.6 mph 6.9 mph 96% 0.11 in 63 W/m2
11:29 57.7 °F 56.6 °F 29.82 in SE 1.9 mph 6.9 mph 96% 0.10 in 51 W/m2
11:34 57.8 °F 56.7 °F 29.82 in SE 0.9 mph 6.9 mph 96% 0.09 in 58 W/m2
11:39 58 °F 56.9 °F 29.82 in SE 1.2 mph 5.8 mph 96% 0.08 in 60 W/m2
11:44 58.1 °F 57 °F 29.82 in SE 1.4 mph 5.8 mph 96% 0.11 in 44 W/m2
11:49 58.1 °F 57 °F 29.82 in SE 0.9 mph 4.6 mph 96% 0.17 in 51 W/m2
11:54 58.1 °F 57 °F 29.81 in SE 0.8 mph 4.6 mph 96% 0.20 in 53 W/m2
11:59 58.2 °F 57.1 °F 29.81 in SE 0.6 mph 4.6 mph 96% 0.22 in 42 W/m2
12:04 58.3 °F 57.2 °F 29.81 in SE 0.1 mph 3.4 mph 96% 0.26 in 32 W/m2
12:09 58.4 °F 57.3 °F 29.80 in SE 1.9 mph 5.8 mph 96% 0.29 in 28 W/m2
12:14 58.6 °F 57.4 °F 29.80 in SE 1.3 mph 5.8 mph 96% 0.31 in 25 W/m2
12:19 58.6 °F 57.5 °F 29.80 in SE 0.8 mph 4.6 mph 96% 0.33 in 25 W/m2
12:24 58.7 °F 57.6 °F 29.80 in SE 2.4 mph 5.8 mph 96.2% 0.35 in 23 W/m2
12:29 58.7 °F 57.7 °F 29.79 in SE 0.6 mph 5.8 mph 96.3% 0.36 in 28 W/m2
12:34 58.8 °F 58 °F 29.80 in SE 0.9 mph 4.6 mph 97% 0.38 in 30 W/m2
12:39 58.9 °F 58 °F 29.80 in SE 0.8 mph 6.9 mph 97% 0.39 in 44 W/m2
12:44 58.9 °F 58.1 °F 29.79 in SE 2.2 mph 6.9 mph 97% 0.42 in 58 W/m2
12:49 59.1 °F 58.2 °F 29.79 in SE 1.6 mph 6.9 mph 97% 0.42 in 79 W/m2
12:54 59.1 °F 58.3 °F 29.78 in SE 2.3 mph 6.9 mph 97% 0.38 in 88 W/m2
12:59 59.2 °F 58.4 °F 29.78 in SE 2.2 mph 5.8 mph 97% 0.30 in 88 W/m2
13:04 59.2 °F 58.4 °F 29.78 in SE 1.8 mph 5.8 mph 97% 0.27 in 100 W/m2
13:09 59.4 °F 58.5 °F 29.78 in SE 1.7 mph 6.9 mph 97% 0.26 in 162 W/m2
13:14 59.7 °F 58.8 °F 29.78 in SE 1.6 mph 6.9 mph 97% 0.22 in 185 W/m2
13:19 60.1 °F 59.3 °F 29.78 in SE 2.1 mph 5.8 mph 97.3% 0.19 in 190 W/m2
13:24 60.3 °F 59.5 °F 29.78 in SE 1.8 mph 5.8 mph 97.3% 0.17 in 162 W/m2
13:29 60.4 °F 59.8 °F 29.78 in SE 2 mph 8.1 mph 97.7% 0.15 in 192 W/m2
13:34 60.6 °F 59.9 °F 29.78 in SE 1.7 mph 8.1 mph 97.3% 0.13 in 178 W/m2
13:39 60.6 °F 59.8 °F 29.78 in SSE 3.8 mph 8.1 mph 97% 0.11 in 130 W/m2
13:44 60.7 °F 59.9 °F 29.78 in SSE 1.4 mph 8.1 mph 97.2% 0.08 in 125 W/m2
13:49 60.9 °F 60.3 °F 29.78 in SSE 2 mph 5.8 mph 97.8% 0.06 in 139 W/m2
13:54 61 °F 60.4 °F 29.77 in South 1.5 mph 5.8 mph 97.8% 0.03 in 128 W/m2
13:59 61 °F 60.3 °F 29.77 in SSE 4.5 mph 10.3 mph 97.5% 0.03 in 134 W/m2
14:04 61.4 °F 60.8 °F 29.76 in South 2.4 mph 10.3 mph 98% 0.03 in 185 W/m2
14:09 61.8 °F 61.2 °F 29.76 in South 2.1 mph 8.1 mph 98% 0.03 in 185 W/m2
14:14 61.9 °F 61.3 °F 29.76 in South 2.3 mph 8.1 mph 98% 0.02 in 190 W/m2
14:19 62.2 °F 61.6 °F 29.76 in South 1.2 mph 8.1 mph 98% 0.02 in 188 W/m2
14:24 62.4 °F 61.9 °F 29.76 in South 0.5 mph 5.8 mph 98% 0.02 in 202 W/m2
14:29 62.6 °F 62 °F 29.76 in South 0.6 mph 5.8 mph 98% 0.02 in 199 W/m2
14:34 62.9 °F 62.4 °F 29.76 in South 0.9 mph 5.8 mph 98% 0.02 in 202 W/m2
Peotne Weather
Compliments of Weather Underground - 2 mb